Time;durP1;ratioP1;P1;durP2;ratioP2;P2;SDS_P1;SDS_P2;PMS_P1;PMS_P2;Temp;Humidity;BMP_temperature;BMP_pressure;BME280_temperature;BME280_humidity;BME280_pressure;Samples;Min_cycle;Max_cycle;Signal;HPM_P1;HPM_P2
2021/03/21 00:00:29;;;;;;;498.35;243.77;;;;;;;;;;5034920;28;20483;-77
2021/03/21 00:02:55;;;;;;;473.00;236.70;;;;;;;;;;5034539;28;20507;-78
2021/03/21 00:05:21;;;;;;;490.92;241.93;;;;;;;;;;5034480;28;20721;-77
2021/03/21 00:07:51;;;;;;;471.42;236.45;;;;;;;;;;5034631;28;20044;-78
2021/03/21 00:10:17;;;;;;;476.00;232.63;;;;;;;;;;5034751;28;20025;-77
2021/03/21 00:12:43;;;;;;;456.75;231.90;;;;;;;;;;5033169;28;20358;-77
2021/03/21 00:15:10;;;;;;;454.33;230.43;;;;;;;;;;5034036;28;20120;-77
2021/03/21 00:17:36;;;;;;;490.70;237.15;;;;;;;;;;5033841;28;20366;-77
2021/03/21 00:20:03;;;;;;;478.02;234.95;;;;;;;;;;5034729;28;20022;-78
2021/03/21 00:22:29;;;;;;;474.65;240.40;;;;;;;;;;5033574;28;20486;-77
2021/03/21 00:24:55;;;;;;;479.98;226.38;;;;;;;;;;5035809;28;20018;-78
2021/03/21 00:27:21;;;;;;;457.70;225.68;;;;;;;;;;5034535;28;20023;-77
2021/03/21 00:29:47;;;;;;;475.15;238.35;;;;;;;;;;5034034;28;20025;-77
2021/03/21 00:32:13;;;;;;;511.95;250.23;;;;;;;;;;5034178;28;20029;-77
2021/03/21 00:34:39;;;;;;;464.45;231.80;;;;;;;;;;5035265;28;20031;-78
2021/03/21 00:37:05;;;;;;;470.08;234.23;;;;;;;;;;5034232;28;20037;-78
2021/03/21 00:39:31;;;;;;;471.35;235.40;;;;;;;;;;5033868;28;20056;-77
2021/03/21 00:41:57;;;;;;;494.30;234.80;;;;;;;;;;5035032;28;20092;-77
2021/03/21 00:44:23;;;;;;;482.20;238.25;;;;;;;;;;5032530;28;20029;-77
2021/03/21 00:46:49;;;;;;;500.02;237.90;;;;;;;;;;5035490;28;20021;-77
2021/03/21 00:49:15;;;;;;;472.77;237.52;;;;;;;;;;5033873;28;20069;-76
2021/03/21 00:51:41;;;;;;;463.30;235.20;;;;;;;;;;5035087;28;20034;-78
2021/03/21 00:54:07;;;;;;;472.08;234.50;;;;;;;;;;5033806;28;20458;-76
2021/03/21 00:56:39;;;;;;;457.70;239.77;;;;;;;;;;5033581;28;20122;-77
2021/03/21 00:59:05;;;;;;;460.55;240.80;;;;;;;;;;5035054;28;20156;-77
2021/03/21 01:01:33;;;;;;;458.17;237.35;;;;;;;;;;5034394;28;20033;-76
2021/03/21 01:03:59;;;;;;;441.13;230.25;;;;;;;;;;5050059;28;20168;-78
2021/03/21 01:06:25;;;;;;;438.77;227.05;;;;;;;;;;5050111;28;20057;-77
2021/03/21 01:09:01;;;;;;;447.27;228.77;;;;;;;;;;5050062;28;20115;-78
2021/03/21 01:11:32;;;;;;;451.50;233.80;;;;;;;;;;5034706;28;20052;-78
2021/03/21 01:13:58;;;;;;;443.15;231.55;;;;;;;;;;5048715;28;20033;-78
2021/03/21 01:16:30;;;;;;;436.92;225.48;;;;;;;;;;5050074;28;20065;-79
2021/03/21 01:18:59;;;;;;;444.17;228.00;;;;;;;;;;5049971;28;20101;-77
2021/03/21 01:21:25;;;;;;;448.45;227.88;;;;;;;;;;5049970;28;20493;-77
2021/03/21 01:23:51;;;;;;;450.33;228.95;;;;;;;;;;5041011;28;20028;-76
2021/03/21 01:26:19;;;;;;;466.42;239.75;;;;;;;;;;5031667;28;20376;-75
2021/03/21 01:28:45;;;;;;;506.02;245.75;;;;;;;;;;5033145;28;20021;-77
2021/03/21 01:31:12;;;;;;;506.67;247.95;;;;;;;;;;5033168;28;20447;-79
2021/03/21 01:33:38;;;;;;;461.90;236.02;;;;;;;;;;5033993;28;20051;-77
2021/03/21 01:36:07;;;;;;;520.90;248.82;;;;;;;;;;5034305;28;20076;-78
2021/03/21 01:38:33;;;;;;;470.52;239.43;;;;;;;;;;5032797;28;20040;-77
2021/03/21 01:41:01;;;;;;;465.55;236.30;;;;;;;;;;5032709;28;20116;-76
2021/03/21 01:43:32;;;;;;;481.10;241.10;;;;;;;;;;5031630;28;20710;-76
2021/03/21 01:45:58;;;;;;;746.72;415.55;;;;;;;;;;5032806;28;20025;-77
2021/03/21 01:48:44;;;;;;;486.08;234.57;;;;;;;;;;5032730;28;20032;-77
2021/03/21 01:51:20;;;;;;;544.92;261.35;;;;;;;;;;5066055;28;20029;-77
2021/03/21 01:53:47;;;;;;;481.13;229.38;;;;;;;;;;5032907;28;20029;-77
2021/03/21 01:56:13;;;;;;;476.45;234.40;;;;;;;;;;5032720;28;20032;-78
2021/03/21 01:58:39;;;;;;;806.97;465.23;;;;;;;;;;5032721;28;20104;-77
2021/03/21 02:01:11;;;;;;;473.92;227.50;;;;;;;;;;5032511;28;20474;-77
2021/03/21 02:03:37;;;;;;;548.05;274.75;;;;;;;;;;5032528;28;20027;-78
2021/03/21 02:06:20;;;;;;;476.80;244.13;;;;;;;;;;5032625;28;20036;-76
2021/03/21 02:08:51;;;;;;;562.03;269.25;;;;;;;;;;5033841;28;20029;-77
2021/03/21 02:11:17;;;;;;;508.65;249.30;;;;;;;;;;5032490;28;20385;-77
2021/03/21 02:13:56;;;;;;;529.83;257.75;;;;;;;;;;5030986;28;20033;-75
2021/03/21 02:16:26;;;;;;;470.75;233.80;;;;;;;;;;5032112;28;20033;-77
2021/03/21 02:19:15;;;;;;;477.98;233.05;;;;;;;;;;5032143;28;20141;-77
2021/03/21 02:21:46;;;;;;;486.25;229.32;;;;;;;;;;5032032;28;20029;-77
2021/03/21 02:24:18;;;;;;;502.83;241.55;;;;;;;;;;5032261;28;20026;-76
2021/03/21 02:26:49;;;;;;;482.80;237.50;;;;;;;;;;5032218;28;20466;-78
2021/03/21 02:29:21;;;;;;;467.45;233.07;;;;;;;;;;5032019;28;20057;-77
2021/03/21 02:31:51;;;;;;;725.00;372.15;;;;;;;;;;5033319;28;20040;-76
2021/03/21 02:34:18;;;;;;;450.98;222.63;;;;;;;;;;5032085;28;20535;-77
2021/03/21 02:37:13;;;;;;;459.73;221.85;;;;;;;;;;5032099;28;20061;-78
2021/03/21 02:39:39;;;;;;;472.20;234.10;;;;;;;;;;5005004;28;20041;-78
2021/03/21 02:42:08;;;;;;;485.45;229.02;;;;;;;;;;5028307;28;20553;-76
2021/03/21 02:45:03;;;;;;;468.63;233.05;;;;;;;;;;5040244;28;20515;-77
2021/03/21 02:47:53;;;;;;;463.33;234.80;;;;;;;;;;5023033;28;20029;-77
2021/03/21 02:50:42;;;;;;;479.60;240.05;;;;;;;;;;5031959;28;20560;-75
2021/03/21 02:53:21;;;;;;;463.77;236.52;;;;;;;;;;5029830;28;20051;-78
2021/03/21 02:55:48;;;;;;;479.10;237.55;;;;;;;;;;5031737;28;20030;-75
2021/03/21 02:58:14;;;;;;;468.30;229.48;;;;;;;;;;5031770;28;20037;-77
2021/03/21 03:00:53;;;;;;;488.17;238.82;;;;;;;;;;5033165;28;20029;-77
2021/03/21 03:03:20;;;;;;;473.50;242.55;;;;;;;;;;5031609;28;20025;-77
2021/03/21 03:06:07;;;;;;;479.42;233.63;;;;;;;;;;5031636;28;20025;-76
2021/03/21 03:08:33;;;;;;;479.85;231.43;;;;;;;;;;5033059;28;20490;-76
2021/03/21 03:10:59;;;;;;;498.35;239.48;;;;;;;;;;5031557;28;20057;-76
2021/03/21 03:13:28;;;;;;;501.27;251.13;;;;;;;;;;5030406;28;20037;-76
2021/03/21 03:15:58;;;;;;;680.95;331.65;;;;;;;;;;5032998;28;20052;-74
2021/03/21 03:18:33;;;;;;;507.92;242.20;;;;;;;;;;5031467;28;20026;-76
2021/03/21 03:21:22;;;;;;;764.00;435.23;;;;;;;;;;5032742;28;20057;-75
2021/03/21 03:23:48;;;;;;;526.85;251.10;;;;;;;;;;5032920;28;20026;-75
2021/03/21 03:26:21;;;;;;;656.17;303.10;;;;;;;;;;5032678;28;20036;-75
2021/03/21 03:29:00;;;;;;;512.67;248.77;;;;;;;;;;5032739;28;20029;-74
2021/03/21 03:31:32;;;;;;;531.03;257.48;;;;;;;;;;5031449;28;20029;-75
2021/03/21 03:33:58;;;;;;;559.05;268.67;;;;;;;;;;5032659;28;20769;-75
2021/03/21 03:36:24;;;;;;;711.53;337.05;;;;;;;;;;5032652;28;20060;-75
2021/03/21 03:38:51;;;;;;;497.65;246.32;;;;;;;;;;5031283;28;20120;-75
2021/03/21 03:41:26;;;;;;;510.88;253.43;;;;;;;;;;5032320;28;20068;-76
2021/03/21 03:43:57;;;;;;;481.08;240.85;;;;;;;;;;5029856;28;20083;-75
2021/03/21 03:46:31;;;;;;;545.17;261.70;;;;;;;;;;5031274;28;20075;-75
2021/03/21 03:49:06;;;;;;;613.13;301.02;;;;;;;;;;5032588;28;20032;-74
2021/03/21 03:51:43;;;;;;;579.25;285.17;;;;;;;;;;5032203;28;20053;-75
2021/03/21 03:54:12;;;;;;;553.05;275.63;;;;;;;;;;5032255;28;20041;-73
2021/03/21 03:56:59;;;;;;;596.43;294.00;;;;;;;;;;5033900;28;20021;-74
2021/03/21 03:59:38;;;;;;;549.33;271.10;;;;;;;;;;5034595;28;20036;-75
2021/03/21 04:02:04;;;;;;;564.35;264.35;;;;;;;;;;5034823;28;20025;-74
2021/03/21 04:04:40;;;;;;;639.60;318.33;;;;;;;;;;5034622;28;20033;-75
2021/03/21 04:07:06;;;;;;;774.30;406.13;;;;;;;;;;5034862;28;20116;-74
2021/03/21 04:09:37;;;;;;;754.03;409.23;;;;;;;;;;5034573;28;20449;-75
2021/03/21 04:12:02;;;;;;;;;;;;;;;;;;5031833;28;20038;-74
2021/03/21 04:14:58;;;;;;;581.05;275.98;;;;;;;;;;5014836;28;19909;-75
2021/03/21 04:17:42;;;;;;;731.33;401.35;;;;;;;;;;5028655;28;20037;-76
2021/03/21 04:20:15;;;;;;;569.22;270.83;;;;;;;;;;5034443;28;20045;-75
2021/03/21 04:22:46;;;;;;;500.85;240.35;;;;;;;;;;5034578;28;20393;-76
2021/03/21 04:25:15;;;;;;;485.02;244.57;;;;;;;;;;5035750;28;20022;-76
2021/03/21 04:27:54;;;;;;;519.30;252.43;;;;;;;;;;5035596;28;20018;-76
2021/03/21 04:30:23;;;;;;;489.20;246.20;;;;;;;;;;5035550;28;20049;-75
2021/03/21 04:32:51;;;;;;;518.47;256.80;;;;;;;;;;5034072;28;20029;-75
2021/03/21 04:35:21;;;;;;;491.50;253.30;;;;;;;;;;5034474;28;20748;-76
2021/03/21 04:37:50;;;;;;;572.58;282.60;;;;;;;;;;5034419;28;20034;-75
2021/03/21 04:40:16;;;;;;;480.80;244.18;;;;;;;;;;5035319;28;20367;-76
2021/03/21 04:42:46;;;;;;;490.05;243.00;;;;;;;;;;5031299;28;20136;-76
2021/03/21 04:45:17;;;;;;;514.70;256.17;;;;;;;;;;5035276;28;20374;-75
2021/03/21 04:47:50;;;;;;;533.25;260.30;;;;;;;;;;5033913;28;20386;-75
2021/03/21 04:50:17;;;;;;;501.65;251.30;;;;;;;;;;5035249;28;20024;-75
2021/03/21 04:53:02;;;;;;;517.67;256.20;;;;;;;;;;5033974;28;20036;-76
2021/03/21 04:55:41;;;;;;;504.67;243.32;;;;;;;;;;5015248;28;20034;-75
2021/03/21 04:58:12;;;;;;;509.33;250.68;;;;;;;;;;5030571;28;20026;-76
2021/03/21 05:00:40;;;;;;;515.30;251.93;;;;;;;;;;5023864;28;20037;-76
2021/03/21 05:03:11;;;;;;;516.10;253.70;;;;;;;;;;5034836;28;20035;-74
2021/03/21 05:05:39;;;;;;;511.15;248.48;;;;;;;;;;5033514;28;20022;-77
2021/03/21 05:08:11;;;;;;;493.80;236.82;;;;;;;;;;5033078;28;20021;-77
2021/03/21 05:10:49;;;;;;;491.75;240.32;;;;;;;;;;5033392;28;20017;-76
2021/03/21 05:13:24;;;;;;;788.63;429.38;;;;;;;;;;5033537;28;20032;-76
2021/03/21 05:15:55;;;;;;;491.83;238.93;;;;;;;;;;5033377;28;20026;-76
2021/03/21 05:18:35;;;;;;;489.90;242.27;;;;;;;;;;5034606;28;20109;-76
2021/03/21 05:21:07;;;;;;;756.97;409.05;;;;;;;;;;5034642;28;20029;-76
2021/03/21 05:23:52;;;;;;;480.10;230.25;;;;;;;;;;5034619;28;20554;-75
2021/03/21 05:26:18;;;;;;;506.52;245.90;;;;;;;;;;5032711;28;20031;-76
2021/03/21 05:28:59;;;;;;;470.27;233.00;;;;;;;;;;5048129;28;20112;-76
2021/03/21 05:31:26;;;;;;;499.95;236.63;;;;;;;;;;5048658;28;20075;-75
2021/03/21 05:33:52;;;;;;;473.50;235.75;;;;;;;;;;5034244;28;20084;-75
2021/03/21 05:36:26;;;;;;;511.80;248.85;;;;;;;;;;5034417;28;20024;-76
2021/03/21 05:38:57;;;;;;;469.15;242.50;;;;;;;;;;5034127;28;20661;-75
2021/03/21 05:41:43;;;;;;;479.10;239.45;;;;;;;;;;5033216;28;20128;-77
2021/03/21 05:44:28;;;;;;;445.95;225.73;;;;;;;;;;5031009;28;20376;-76
2021/03/21 05:47:15;;;;;;;470.98;234.05;;;;;;;;;;5033740;28;20021;-76
2021/03/21 05:49:57;;;;;;;986.28;474.38;;;;;;;;;;5032282;28;20028;-77
2021/03/21 05:52:32;;;;;;;486.60;231.70;;;;;;;;;;5033627;28;20087;-77
2021/03/21 05:55:10;;;;;;;482.50;236.77;;;;;;;;;;5033985;28;20108;-75
2021/03/21 05:57:42;;;;;;;485.45;234.50;;;;;;;;;;5033675;28;20557;-76
2021/03/21 06:00:27;;;;;;;460.35;228.82;;;;;;;;;;5033996;28;20026;-76
2021/03/21 06:03:11;;;;;;;480.20;229.52;;;;;;;;;;5033716;28;20497;-77
2021/03/21 06:06:04;;;;;;;452.63;225.65;;;;;;;;;;5032477;28;20029;-76
2021/03/21 06:08:32;;;;;;;478.75;225.00;;;;;;;;;;5033618;28;20025;-75
2021/03/21 06:11:08;;;;;;;451.85;225.13;;;;;;;;;;5032390;28;20373;-75
2021/03/21 06:13:34;;;;;;;481.77;244.05;;;;;;;;;;5031155;28;20022;-76
2021/03/21 06:16:12;;;;;;;466.85;233.55;;;;;;;;;;5033577;28;20132;-75
2021/03/21 06:18:44;;;;;;;457.27;234.95;;;;;;;;;;5031322;28;20025;-76
2021/03/21 06:21:29;;;;;;;463.52;227.35;;;;;;;;;;5033407;28;20530;-76
2021/03/21 06:24:10;;;;;;;445.52;221.50;;;;;;;;;;5033593;28;20048;-75
2021/03/21 06:26:44;;;;;;;446.40;222.93;;;;;;;;;;5033547;28;20029;-75
2021/03/21 06:29:39;;;;;;;448.45;226.20;;;;;;;;;;5032085;28;20025;-75
2021/03/21 06:32:23;;;;;;;468.80;233.15;;;;;;;;;;5033411;28;20040;-75
2021/03/21 06:34:49;;;;;;;444.83;219.80;;;;;;;;;;5033310;28;20034;-76
2021/03/21 06:37:34;;;;;;;463.88;236.25;;;;;;;;;;5033190;28;20381;-75
2021/03/21 06:40:12;;;;;;;438.17;222.18;;;;;;;;;;5032024;28;20507;-76
2021/03/21 06:42:41;;;;;;;431.50;223.60;;;;;;;;;;5031445;28;20041;-76
2021/03/21 06:45:07;;;;;;;434.42;224.63;;;;;;;;;;5031853;28;20069;-76
2021/03/21 06:47:40;;;;;;;438.30;225.15;;;;;;;;;;5032805;28;20073;-75
2021/03/21 06:50:31;;;;;;;437.92;223.30;;;;;;;;;;5031734;28;20079;-75
2021/03/21 06:53:15;;;;;;;442.25;226.80;;;;;;;;;;5031781;28;20026;-76
2021/03/21 06:55:58;;;;;;;430.98;220.00;;;;;;;;;;5032774;28;20030;-76
2021/03/21 06:58:53;;;;;;;440.67;229.23;;;;;;;;;;5032940;28;20029;-75
2021/03/21 07:01:25;;;;;;;433.88;226.45;;;;;;;;;;5032831;28;20477;-76
2021/03/21 07:03:57;;;;;;;436.88;225.23;;;;;;;;;;5031647;28;20030;-75
2021/03/21 07:06:23;;;;;;;435.45;226.55;;;;;;;;;;5031637;28;20436;-76
2021/03/21 07:09:08;;;;;;;436.10;224.95;;;;;;;;;;5032532;28;20029;-76
2021/03/21 07:11:43;;;;;;;433.27;224.88;;;;;;;;;;5032723;28;20353;-76
2021/03/21 07:14:27;;;;;;;444.63;236.77;;;;;;;;;;5031306;28;20034;-77
2021/03/21 07:16:53;;;;;;;450.75;230.45;;;;;;;;;;5032742;28;20061;-77
2021/03/21 07:19:22;;;;;;;452.60;238.55;;;;;;;;;;5031175;28;20091;-76
2021/03/21 07:21:57;;;;;;;436.67;225.95;;;;;;;;;;5033884;28;20507;-76
2021/03/21 07:24:26;;;;;;;435.63;230.70;;;;;;;;;;5052361;28;20152;-76
2021/03/21 07:27:08;;;;;;;439.77;229.65;;;;;;;;;;5034707;28;20084;-76
2021/03/21 07:29:48;;;;;;;440.85;231.55;;;;;;;;;;5034559;28;20486;-77
2021/03/21 07:32:14;;;;;;;;;;;;;;;;;;5056672;28;20036;-76
2021/03/21 07:35:06;;;;;;;437.70;223.02;;;;;;;;;;5071525;28;19905;-77
2021/03/21 07:37:45;;;;;;;437.17;222.32;;;;;;;;;;5054378;28;20049;-76
2021/03/21 07:40:27;;;;;;;437.50;232.18;;;;;;;;;;5038596;28;20025;-77
2021/03/21 07:43:25;;;;;;;445.38;229.80;;;;;;;;;;5044318;28;20503;-77
2021/03/21 07:46:02;;;;;;;440.73;227.75;;;;;;;;;;5036241;28;20112;-76
2021/03/21 07:48:28;;;;;;;442.67;228.90;;;;;;;;;;5035003;28;20037;-76
2021/03/21 07:51:00;;;;;;;442.17;232.88;;;;;;;;;;5051469;28;20095;-77
2021/03/21 07:53:29;;;;;;;446.40;232.70;;;;;;;;;;5051375;28;20021;-76
2021/03/21 07:56:04;;;;;;;438.95;235.57;;;;;;;;;;5035684;28;20030;-75
2021/03/21 08:01:34;;;;;;;450.35;234.18;;;;;;;;;;5035769;28;20032;-77
2021/03/21 08:04:01;;;;;;;448.00;231.00;;;;;;;;;;5050456;28;20034;-76
2021/03/21 08:06:30;;;;;;;452.67;233.45;;;;;;;;;;5035173;28;20029;-76
2021/03/21 08:09:15;;;;;;;451.17;233.40;;;;;;;;;;5050669;28;20029;-76
2021/03/21 08:11:43;;;;;;;444.73;231.80;;;;;;;;;;5017294;28;20022;-76
2021/03/21 08:14:13;;;;;;;441.50;228.85;;;;;;;;;;5016039;28;20415;-76
2021/03/21 08:16:43;;;;;;;449.95;234.05;;;;;;;;;;5046868;28;20025;-77
2021/03/21 08:19:11;;;;;;;443.48;232.00;;;;;;;;;;5050928;28;20040;-79
2021/03/21 08:21:37;;;;;;;452.20;234.43;;;;;;;;;;5050534;28;20025;-77
2021/03/21 08:24:10;;;;;;;454.20;239.77;;;;;;;;;;5035345;28;20609;-77
2021/03/21 08:26:37;;;;;;;443.40;228.38;;;;;;;;;;5016664;28;20106;-78
2021/03/21 08:29:03;;;;;;;455.92;237.60;;;;;;;;;;5014321;28;20022;-75
2021/03/21 08:31:33;;;;;;;455.88;230.57;;;;;;;;;;5033877;28;20363;-77
2021/03/21 08:34:27;;;;;;;451.40;228.77;;;;;;;;;;5034785;28;20081;-77
2021/03/21 08:36:53;;;;;;;452.38;231.63;;;;;;;;;;5048248;28;20402;-77
2021/03/21 08:39:24;;;;;;;455.23;238.05;;;;;;;;;;5034072;28;20026;-78
2021/03/21 08:41:52;;;;;;;468.40;235.90;;;;;;;;;;5015500;28;20026;-77
2021/03/21 08:44:33;;;;;;;450.33;239.80;;;;;;;;;;5067656;28;20728;-78
2021/03/21 08:46:59;;;;;;;457.88;228.68;;;;;;;;;;5068948;28;20021;-78
2021/03/21 08:49:28;;;;;;;458.23;246.57;;;;;;;;;;5044171;28;20599;-77
2021/03/21 08:51:54;;;;;;;447.23;242.55;;;;;;;;;;5052694;28;20032;-79
2021/03/21 08:54:22;;;;;;;450.75;237.57;;;;;;;;;;5058929;28;20033;-78
2021/03/21 08:57:08;;;;;;;466.42;237.65;;;;;;;;;;5054851;28;20025;-77
2021/03/21 08:59:41;;;;;;;449.67;235.52;;;;;;;;;;5063589;28;20130;-77
2021/03/21 09:02:14;;;;;;;456.85;239.30;;;;;;;;;;5053165;28;20472;-77
2021/03/21 09:04:45;;;;;;;447.50;238.10;;;;;;;;;;5043767;28;20468;-77
2021/03/21 09:07:13;;;;;;;464.10;245.05;;;;;;;;;;5048460;28;20059;-77
2021/03/21 09:09:39;;;;;;;454.80;235.38;;;;;;;;;;5031680;28;20025;-78
2021/03/21 09:12:23;;;;;;;455.35;242.20;;;;;;;;;;5053634;28;20793;-76
2021/03/21 09:14:50;;;;;;;454.70;238.57;;;;;;;;;;5035365;28;20029;-78
2021/03/21 09:17:24;;;;;;;457.58;245.55;;;;;;;;;;5053075;28;20830;-77
2021/03/21 09:19:57;;;;;;;445.92;242.98;;;;;;;;;;5053423;28;20025;-79
2021/03/21 09:22:57;;;;;;;457.98;241.18;;;;;;;;;;5052849;28;20595;-79
2021/03/21 09:25:28;;;;;;;446.17;234.77;;;;;;;;;;5053623;28;20028;-79
2021/03/21 09:27:54;;;;;;;449.30;232.48;;;;;;;;;;5036465;28;20114;-78
2021/03/21 09:30:38;;;;;;;439.30;245.80;;;;;;;;;;5053216;28;20584;-79
2021/03/21 09:33:06;;;;;;;459.50;239.52;;;;;;;;;;5052720;28;20545;-77
2021/03/21 09:35:51;;;;;;;446.02;237.35;;;;;;;;;;5052415;28;20473;-78
2021/03/21 09:38:19;;;;;;;453.60;237.73;;;;;;;;;;5052672;28;20053;-78
2021/03/21 09:40:50;;;;;;;449.20;242.70;;;;;;;;;;5053438;28;20029;-79
2021/03/21 09:43:17;;;;;;;456.30;245.43;;;;;;;;;;5033932;28;20044;-79
2021/03/21 09:45:45;;;;;;;448.00;237.13;;;;;;;;;;5053820;28;20381;-79
2021/03/21 09:48:29;;;;;;;448.25;243.35;;;;;;;;;;5053888;28;20057;-78
2021/03/21 09:51:04;;;;;;;452.83;244.60;;;;;;;;;;5039170;28;20469;-78
2021/03/21 09:53:30;;;;;;;455.88;245.38;;;;;;;;;;5032336;28;20473;-78
2021/03/21 09:55:58;;;;;;;454.00;239.00;;;;;;;;;;5046142;28;20029;-79
2021/03/21 09:58:30;;;;;;;445.80;237.50;;;;;;;;;;5053853;28;20025;-80
2021/03/21 10:01:18;;;;;;;447.20;238.48;;;;;;;;;;5053142;28;20037;-79
2021/03/21 10:03:46;;;;;;;440.80;237.23;;;;;;;;;;5035655;28;20708;-81
2021/03/21 10:06:17;;;;;;;452.77;244.65;;;;;;;;;;5052964;28;20078;-79
2021/03/21 10:08:46;;;;;;;452.40;239.70;;;;;;;;;;5035668;28;20550;-80
2021/03/21 10:11:15;;;;;;;444.70;240.02;;;;;;;;;;5035271;28;20020;-78
2021/03/21 10:13:45;;;;;;;459.92;239.63;;;;;;;;;;5034084;28;20017;-78
2021/03/21 10:16:18;;;;;;;437.83;236.43;;;;;;;;;;5028830;28;20033;-78
2021/03/21 10:19:06;;;;;;;440.50;236.73;;;;;;;;;;5044090;28;20381;-79
2021/03/21 10:21:40;;;;;;;451.50;243.80;;;;;;;;;;5034841;28;20017;-79
2021/03/21 10:24:26;;;;;;;448.00;241.48;;;;;;;;;;5052172;28;20492;-78
2021/03/21 10:27:11;;;;;;;447.60;244.30;;;;;;;;;;5061615;28;20021;-79
2021/03/21 10:29:40;;;;;;;445.42;243.73;;;;;;;;;;5058680;28;20082;-77
2021/03/21 10:32:38;;;;;;;450.52;245.02;;;;;;;;;;5055351;28;20035;-78
2021/03/21 10:35:05;;;;;;;453.80;246.85;;;;;;;;;;4993009;28;20045;-78
2021/03/21 10:37:43;;;;;;;449.48;248.32;;;;;;;;;;5052904;28;20029;-79
2021/03/21 10:40:13;;;;;;;442.70;249.15;;;;;;;;;;5031789;28;20033;-78
2021/03/21 10:42:43;;;;;;;438.02;239.55;;;;;;;;;;5063423;28;20045;-80
2021/03/21 10:45:13;;;;;;;453.83;246.45;;;;;;;;;;5036566;28;20029;-79
2021/03/21 10:47:39;;;;;;;;;;;;;;;;;;5050225;28;20021;-79
2021/03/21 10:50:08;;;;;;;446.92;233.40;;;;;;;;;;5052820;28;19919;-78
2021/03/21 10:52:35;;;;;;;445.52;245.13;;;;;;;;;;5052704;28;20511;-79
2021/03/21 10:57:45;;;;;;;444.63;244.48;;;;;;;;;;5045306;28;20488;-78
2021/03/21 11:00:19;;;;;;;441.83;241.60;;;;;;;;;;5052484;28;20358;-79
2021/03/21 11:03:10;;;;;;;453.00;249.30;;;;;;;;;;5030970;28;20046;-79
2021/03/21 11:05:43;;;;;;;440.83;239.75;;;;;;;;;;5030995;28;20026;-78
2021/03/21 11:08:38;;;;;;;448.10;241.57;;;;;;;;;;5043766;28;20600;-79
2021/03/21 11:11:33;;;;;;;453.80;239.23;;;;;;;;;;5018232;28;20037;-78
2021/03/21 11:14:11;;;;;;;439.98;242.55;;;;;;;;;;5010438;28;20033;-78
2021/03/21 11:16:40;;;;;;;457.15;242.18;;;;;;;;;;5052063;28;20480;-80
2021/03/21 11:19:10;;;;;;;454.67;248.00;;;;;;;;;;5033786;28;20031;-79
2021/03/21 11:21:37;;;;;;;462.93;239.13;;;;;;;;;;5049905;28;20013;-78
2021/03/21 11:24:16;;;;;;;451.52;249.20;;;;;;;;;;5051116;28;20750;-78
2021/03/21 11:26:43;;;;;;;442.30;246.30;;;;;;;;;;5051057;28;20104;-77
2021/03/21 11:29:22;;;;;;;457.00;243.15;;;;;;;;;;5032966;28;20565;-78
2021/03/21 11:31:51;;;;;;;438.63;231.98;;;;;;;;;;5041921;28;20369;-79
2021/03/21 11:34:22;;;;;;;441.17;241.40;;;;;;;;;;5038968;28;20044;-78
2021/03/21 11:36:47;;;;;;;;;;;;;;;;;;5038881;28;20086;-79
2021/03/21 11:39:28;;;;;;;442.98;236.45;;;;;;;;;;5063558;28;19912;-81
2021/03/21 11:41:54;;;;;;;441.20;235.90;;;;;;;;;;5030321;28;20127;-78
2021/03/21 11:44:22;;;;;;;451.13;248.18;;;;;;;;;;5026274;28;20073;-79
2021/03/21 11:46:49;;;;;;;441.83;241.82;;;;;;;;;;5041089;28;20032;-80
2021/03/21 11:49:16;;;;;;;445.15;237.48;;;;;;;;;;5048615;28;20022;-79
2021/03/21 11:51:43;;;;;;;457.55;243.13;;;;;;;;;;5030116;28;20033;-76
2021/03/21 11:54:16;;;;;;;453.63;248.07;;;;;;;;;;5035991;28;21830;-79
2021/03/21 11:56:45;;;;;;;453.23;245.75;;;;;;;;;;5031081;28;20029;-79
2021/03/21 11:59:16;;;;;;;451.05;240.73;;;;;;;;;;5037772;28;20080;-81
2021/03/21 12:01:45;;;;;;;449.10;246.88;;;;;;;;;;5028059;28;20037;-81
2021/03/21 12:04:33;;;;;;;453.13;244.82;;;;;;;;;;5039999;28;20021;-80
2021/03/21 12:07:00;;;;;;;455.30;234.43;;;;;;;;;;5035034;28;20060;-79
2021/03/21 12:09:26;;;;;;;450.30;248.30;;;;;;;;;;5037527;28;20108;-78
2021/03/21 12:11:52;;;;;;;452.08;243.73;;;;;;;;;;5028488;28;20780;-78
2021/03/21 12:14:20;;;;;;;441.98;241.57;;;;;;;;;;5022736;28;20397;-79
2021/03/21 12:16:47;;;;;;;444.02;243.00;;;;;;;;;;5040584;28;20032;-79
2021/03/21 12:19:28;;;;;;;460.20;252.50;;;;;;;;;;5031416;28;20040;-80
2021/03/21 12:21:56;;;;;;;454.92;245.95;;;;;;;;;;5044187;28;20025;-80
2021/03/21 12:24:41;;;;;;;457.00;252.88;;;;;;;;;;5040769;28;20054;-79
2021/03/21 12:27:27;;;;;;;450.65;245.63;;;;;;;;;;5042477;28;20088;-80
2021/03/21 12:29:54;;;;;;;452.27;254.32;;;;;;;;;;5043685;28;20032;-81
2021/03/21 12:32:40;;;;;;;453.00;239.25;;;;;;;;;;5042917;28;20372;-79
2021/03/21 12:35:11;;;;;;;450.20;242.10;;;;;;;;;;5043692;28;20029;-80
2021/03/21 12:37:55;;;;;;;440.23;244.60;;;;;;;;;;5035225;28;20090;-80
2021/03/21 12:40:33;;;;;;;451.55;247.65;;;;;;;;;;5054931;28;20629;-80
2021/03/21 12:43:17;;;;;;;440.80;242.32;;;;;;;;;;5061179;28;20076;-79
2021/03/21 12:45:58;;;;;;;459.80;245.45;;;;;;;;;;5036660;28;20084;-81
2021/03/21 12:48:24;;;;;;;453.50;250.32;;;;;;;;;;5053152;28;20014;-80
2021/03/21 12:50:50;;;;;;;446.38;236.88;;;;;;;;;;5036961;28;20013;-79
2021/03/21 12:53:19;;;;;;;454.15;249.35;;;;;;;;;;5053231;28;20029;-80
2021/03/21 12:55:46;;;;;;;447.48;251.52;;;;;;;;;;5044705;28;20025;-79
2021/03/21 12:58:12;;;;;;;436.80;241.40;;;;;;;;;;5051273;28;20687;-78
2021/03/21 13:00:38;;;;;;;445.98;249.32;;;;;;;;;;5044434;28;20108;-78
2021/03/21 13:03:05;;;;;;;453.27;244.07;;;;;;;;;;5051576;28;20036;-80
2021/03/21 13:05:33;;;;;;;446.50;248.48;;;;;;;;;;5051940;28;20025;-78
2021/03/21 13:08:00;;;;;;;452.17;249.98;;;;;;;;;;5055873;28;20488;-79
2021/03/21 13:10:28;;;;;;;442.67;247.85;;;;;;;;;;5033776;28;20040;-79
2021/03/21 13:12:54;;;;;;;459.40;248.27;;;;;;;;;;5034313;28;20111;-83
2021/03/21 13:15:20;;;;;;;457.35;250.70;;;;;;;;;;5048294;28;20037;-78
2021/03/21 13:17:46;;;;;;;451.35;250.70;;;;;;;;;;5048446;28;20044;-80
2021/03/21 13:20:15;;;;;;;460.27;249.98;;;;;;;;;;5036349;28;20112;-78
2021/03/21 13:23:06;;;;;;;458.77;249.98;;;;;;;;;;5035925;28;20031;-77
2021/03/21 13:25:34;;;;;;;448.00;251.52;;;;;;;;;;5066347;28;20056;-80
2021/03/21 13:28:01;;;;;;;447.08;254.25;;;;;;;;;;5050314;28;20028;-81
2021/03/21 13:30:29;;;;;;;475.00;259.75;;;;;;;;;;5035526;28;20497;-79
2021/03/21 13:32:56;;;;;;;444.38;248.05;;;;;;;;;;5053739;28;20017;-78
2021/03/21 13:35:22;;;;;;;444.42;252.18;;;;;;;;;;5052484;28;20538;-78
2021/03/21 13:37:49;;;;;;;446.15;249.32;;;;;;;;;;5035607;28;20037;-79
2021/03/21 13:40:27;;;;;;;445.38;251.38;;;;;;;;;;5051441;28;20048;-78
2021/03/21 13:42:53;;;;;;;455.95;258.30;;;;;;;;;;5045293;28;20060;-79
2021/03/21 13:45:20;;;;;;;438.80;250.93;;;;;;;;;;5046980;28;20692;-80
2021/03/21 13:47:46;;;;;;;439.17;251.73;;;;;;;;;;5053726;28;20059;-80
2021/03/21 13:50:13;;;;;;;447.38;254.23;;;;;;;;;;5046986;28;20142;-79
2021/03/21 13:52:39;;;;;;;445.50;247.57;;;;;;;;;;5068201;28;20032;-79
2021/03/21 13:55:06;;;;;;;444.58;259.13;;;;;;;;;;5051647;28;20098;-80
2021/03/21 13:57:32;;;;;;;447.98;247.65;;;;;;;;;;5051998;28;20033;-77
2021/03/21 13:59:58;;;;;;;450.00;257.45;;;;;;;;;;5035105;28;20052;-79
2021/03/21 14:02:24;;;;;;;441.25;245.63;;;;;;;;;;5034647;28;20032;-80
2021/03/21 14:04:50;;;;;;;438.10;248.07;;;;;;;;;;5036624;28;20017;-79
2021/03/21 14:07:16;;;;;;;449.70;250.55;;;;;;;;;;5033710;28;20025;-81
2021/03/21 14:09:41;;;;;;;448.00;249.02;;;;;;;;;;5051811;28;20032;-78
2021/03/21 14:12:08;;;;;;;446.20;249.23;;;;;;;;;;5034528;28;20550;-79
2021/03/21 14:14:34;;;;;;;460.25;253.68;;;;;;;;;;5049936;28;20056;-78
2021/03/21 14:17:00;;;;;;;448.80;248.10;;;;;;;;;;5053260;28;20038;-79
2021/03/21 14:19:26;;;;;;;442.50;252.50;;;;;;;;;;5053344;28;20025;-79
2021/03/21 14:21:52;;;;;;;461.48;254.30;;;;;;;;;;5068811;28;20079;-79
2021/03/21 14:24:18;;;;;;;441.92;245.48;;;;;;;;;;5068800;28;20025;-80
2021/03/21 14:26:44;;;;;;;458.85;255.50;;;;;;;;;;5068728;28;20549;-78
2021/03/21 14:29:10;;;;;;;445.10;248.52;;;;;;;;;;5068724;28;20044;-79